Cpo Norway — 2AJP6 — position and weather

sailwx.info

Track history (hours):
 
Tides and Currents Weather Stations Pressure Air Temp Water Temp Dewpoint Dewpoint Depression Visibility Wind Speed Wind Dir Waves Ship Positions

Cpo Norway

Last reported at 2018-Jun-22 00:13 UTC. Time now 2018-Jun-24 03:40 UTC.
Position N 09°15' W 079°55'.

Length 184 m; draft 10.5 m.

Type: Ship. MMSI: 235060247.

Date/timePositionNaut miles runAvg speedWind from/ knotsBaromVisibWave heightAir tempDewpointWater temp
2018-Jun-22 00:13N 09°15' W 079°55'2 0.9
2018-Jun-21 22:16N 09°17' W 079°55'0 1.0
2018-Jun-21 22:00N 09°17' W 079°55'2 3.9
2018-Jun-21 21:29N 09°19' W 079°55'3 6.1
2018-Jun-21 21:00N 09°22' W 079°55'0 0.3
2018-Jun-21 20:28N 09°22' W 079°55'0 0.0
2018-Jun-21 19:58N 09°22' W 079°55'0 0.0
2018-Jun-21 19:28N 09°22' W 079°55'0 0.0
2018-Jun-21 18:55N 09°22' W 079°55'0 0.0
2018-Jun-21 18:28N 09°22' W 079°55'0 0.0
2018-Jun-21 17:58N 09°22' W 079°55'0 0.1
2018-Jun-21 17:28N 09°22' W 079°55'0 0.1
2018-Jun-21 16:58N 09°22' W 079°55'0 0.1
2018-Jun-21 16:28N 09°22' W 079°55'0 0.0
2018-Jun-21 16:00N 09°22' W 079°55'1 2.0
2018-Jun-21 15:30N 09°23' W 079°55'2 3.9
2018-Jun-21 15:00N 09°25' W 079°55'2 3.8
2018-Jun-21 14:30N 09°25' W 079°57'0 0.6
2018-Jun-21 13:59N 09°25' W 079°57'0 0.0
2018-Jun-21 13:29N 09°25' W 079°57'0 0.0
2018-Jun-21 12:59N 09°25' W 079°57'0 0.0
2018-Jun-21 12:26N 09°25' W 079°57'0 0.0
2018-Jun-21 11:59N 09°25' W 079°57'0 0.0
2018-Jun-21 11:29N 09°25' W 079°57'0 0.0
2018-Jun-21 10:59N 09°25' W 079°57'0 0.0
2018-Jun-21 10:29N 09°25' W 079°57'0 0.0
2018-Jun-21 09:59N 09°25' W 079°57'0 0.0
2018-Jun-21 09:29N 09°25' W 079°57'0 0.0
2018-Jun-21 07:23N 09°25' W 079°57'0 0.0
2018-Jun-21 06:53N 09°25' W 079°57'0 0.0
2018-Jun-21 06:17N 09°25' W 079°57'0 0.0
2018-Jun-21 05:53N 09°25' W 079°57'0 0.0
2018-Jun-21 04:29N 09°25' W 079°57'0 0.0
2018-Jun-21 03:56N 09°25' W 079°57'0 0.0
2018-Jun-21 00:35N 09°25' W 079°57'0 0.0
2018-Jun-21 00:26N 09°25' W 079°57'0 0.0
2018-Jun-20 23:29N 09°25' W 079°57'0 0.1
2018-Jun-20 22:59N 09°25' W 079°57'0 0.2
2018-Jun-20 22:30N 09°25' W 079°57'2 4.3
2018-Jun-20 22:00N 09°26' W 079°55'6 9.5
2018-Jun-20 21:21N 09°32' W 079°53'  
2018-Jun-15 10:39N 29°14' W 094°33'212.5
2018-Jun-15 10:30N 29°15' W 094°34'611.6
2018-Jun-15 10:00N 29°19' W 094°39'510.3
2018-Jun-15 09:30N 29°21' W 094°45'5 9.5
2018-Jun-15 09:00N 29°24' W 094°49'611.6
2018-Jun-15 08:30N 29°29' W 094°52'611.6
2018-Jun-15 08:00N 29°34' W 094°55'510.4
2018-Jun-15 07:30N 29°38' W 094°58'5 9.6
2018-Jun-15 06:59N 29°43' W 095°01'0 0.0
2018-Jun-13 12:21N 29°43' W 095°01'3 8.5
2018-Jun-13 11:57N 29°40' W 094°59'612.2
2018-Jun-13 11:29N 29°35' W 094°56'1014.4
2018-Jun-13 10:47N 29°26' W 094°50'415.4
2018-Jun-13 10:30N 29°23' W 094°48'814.2
2018-Jun-13 09:58N 29°20' W 094°40'611.0
2018-Jun-13 09:27N 29°17' W 094°34'3 6.7
2018-Jun-13 09:00N 29°17' W 094°31'2 0.3
2018-Jun-13 03:21N 29°17' W 094°29'  
Track history (hours):
 
Tides and Currents Weather Stations Pressure Air Temp Water Temp Dewpoint Dewpoint Depression Visibility Wind Speed Wind Dir Waves Ship Positions

Cpo Norway

Last reported at 2018-Jun-22 00:13 UTC. Time now 2018-Jun-24 03:40 UTC.
Position N 09°15' W 079°55'.

Length 184 m; draft 10.5 m.

Type: Ship. MMSI: 235060247.

Date/timePositionNaut miles runAvg speedWind from/ knotsBaromVisibWave heightAir tempDewpointWater temp
2018-Jun-22 00:13N 09°15' W 079°55'2 0.9
2018-Jun-21 22:16N 09°17' W 079°55'0 1.0
2018-Jun-21 22:00N 09°17' W 079°55'2 3.9
2018-Jun-21 21:29N 09°19' W 079°55'3 6.1
2018-Jun-21 21:00N 09°22' W 079°55'0 0.3
2018-Jun-21 20:28N 09°22' W 079°55'0 0.0
2018-Jun-21 19:58N 09°22' W 079°55'0 0.0
2018-Jun-21 19:28N 09°22' W 079°55'0 0.0
2018-Jun-21 18:55N 09°22' W 079°55'0 0.0
2018-Jun-21 18:28N 09°22' W 079°55'0 0.0
2018-Jun-21 17:58N 09°22' W 079°55'0 0.1
2018-Jun-21 17:28N 09°22' W 079°55'0 0.1
2018-Jun-21 16:58N 09°22' W 079°55'0 0.1
2018-Jun-21 16:28N 09°22' W 079°55'0 0.0
2018-Jun-21 16:00N 09°22' W 079°55'1 2.0
2018-Jun-21 15:30N 09°23' W 079°55'2 3.9
2018-Jun-21 15:00N 09°25' W 079°55'2 3.8
2018-Jun-21 14:30N 09°25' W 079°57'0 0.6
2018-Jun-21 13:59N 09°25' W 079°57'0 0.0
2018-Jun-21 13:29N 09°25' W 079°57'0 0.0
2018-Jun-21 12:59N 09°25' W 079°57'0 0.0
2018-Jun-21 12:26N 09°25' W 079°57'0 0.0
2018-Jun-21 11:59N 09°25' W 079°57'0 0.0
2018-Jun-21 11:29N 09°25' W 079°57'0 0.0
2018-Jun-21 10:59N 09°25' W 079°57'0 0.0
2018-Jun-21 10:29N 09°25' W 079°57'0 0.0
2018-Jun-21 09:59N 09°25' W 079°57'0 0.0
2018-Jun-21 09:29N 09°25' W 079°57'0 0.0
2018-Jun-21 07:23N 09°25' W 079°57'0 0.0
2018-Jun-21 06:53N 09°25' W 079°57'0 0.0
2018-Jun-21 06:17N 09°25' W 079°57'0 0.0
2018-Jun-21 05:53N 09°25' W 079°57'0 0.0
2018-Jun-21 04:29N 09°25' W 079°57'0 0.0
2018-Jun-21 03:56N 09°25' W 079°57'0 0.0
2018-Jun-21 00:35N 09°25' W 079°57'0 0.0
2018-Jun-21 00:26N 09°25' W 079°57'0 0.0
2018-Jun-20 23:29N 09°25' W 079°57'0 0.1
2018-Jun-20 22:59N 09°25' W 079°57'0 0.2
2018-Jun-20 22:30N 09°25' W 079°57'2 4.3
2018-Jun-20 22:00N 09°26' W 079°55'6 9.5
2018-Jun-20 21:21N 09°32' W 079°53'  
2018-Jun-15 10:39N 29°14' W 094°33'212.5
2018-Jun-15 10:30N 29°15' W 094°34'611.6
2018-Jun-15 10:00N 29°19' W 094°39'510.3
2018-Jun-15 09:30N 29°21' W 094°45'5 9.5
2018-Jun-15 09:00N 29°24' W 094°49'611.6
2018-Jun-15 08:30N 29°29' W 094°52'611.6
2018-Jun-15 08:00N 29°34' W 094°55'510.4
2018-Jun-15 07:30N 29°38' W 094°58'5 9.6
2018-Jun-15 06:59N 29°43' W 095°01'0 0.0
2018-Jun-13 12:21N 29°43' W 095°01'3 8.5
2018-Jun-13 11:57N 29°40' W 094°59'612.2
2018-Jun-13 11:29N 29°35' W 094°56'1014.4
2018-Jun-13 10:47N 29°26' W 094°50'415.4
2018-Jun-13 10:30N 29°23' W 094°48'814.2
2018-Jun-13 09:58N 29°20' W 094°40'611.0
2018-Jun-13 09:27N 29°17' W 094°34'3 6.7
2018-Jun-13 09:00N 29°17' W 094°31'2 0.3
2018-Jun-13 03:21N 29°17' W 094°29'  

Dump ship's entire track history